Davis, Missouri
Current Conditions -  °F | °C
As of 2:54 AM on Saturday 22 Nov 2014 (Local Time) from KSET Reporting Station
Haze Haze  
Wind Chill: 33°   Ceiling: 5500
Heat Index: 38°   Visibility: 5mi
Dew Point: 37°   Wind: 6mph
Humidity: 97%   Direction: 110°ESE
Pressure: 30.15"   Gusts: NA
Location:  39.0252°N, 90.9568°W
Report Text: KSET 220854Z AUTO 11005KT 5SM BR BKN055 OVC080 03/03 A3015 RMK AO2 SLP212 T00330028 56017
Loading
Personal Weather Stations






























Interactive Weather Map New forecast layout! Learn more

10-Day Weather Forecast

Advertisements
Track Severe Weather on mobile